createdAt,value
2023-03-21T00:03:04.492Z,11.77
2023-03-21T00:08:06.029Z,11.79
2023-03-21T00:13:07.512Z,11.80
2023-03-21T00:18:11.252Z,11.75
2023-03-21T00:23:13.050Z,11.68
2023-03-21T00:28:14.503Z,11.69
2023-03-21T00:33:22.580Z,11.65
2023-03-21T00:38:24.850Z,11.60
2023-03-21T00:43:30.112Z,11.56
2023-03-21T00:48:31.945Z,11.46
2023-03-21T00:53:33.333Z,11.39
2023-03-21T00:58:34.749Z,11.37
2023-03-21T01:03:42.622Z,11.23
2023-03-21T01:08:52.236Z,11.32
2023-03-21T01:14:03.986Z,11.22
2023-03-21T01:19:22.041Z,11.21
2023-03-21T01:24:26.532Z,11.18
2023-03-21T01:29:27.965Z,11.25
2023-03-21T01:34:29.889Z,11.25
2023-03-21T01:39:34.814Z,11.17
2023-03-21T01:45:15.346Z,11.11
2023-03-21T01:50:17.062Z,11.00
2023-03-21T01:55:18.964Z,10.99
2023-03-21T02:00:24.937Z,10.92
2023-03-21T02:05:33.347Z,10.88
2023-03-21T02:10:36.488Z,10.98
2023-03-21T02:15:41.330Z,10.91
2023-03-21T02:21:21.892Z,10.93
2023-03-21T02:26:43.885Z,10.88
2023-03-21T02:32:00.908Z,10.76
2023-03-21T02:37:23.482Z,10.73
2023-03-21T02:42:51.584Z,10.68
2023-03-21T02:48:10.067Z,10.61
2023-03-21T02:53:18.363Z,10.63
2023-03-21T02:58:23.260Z,10.55
2023-03-21T03:03:34.065Z,10.51
2023-03-21T03:09:02.770Z,10.48
2023-03-21T03:14:36.761Z,10.50
2023-03-21T03:19:50.018Z,10.47
2023-03-21T03:25:18.599Z,10.40
2023-03-21T03:30:35.436Z,10.30
2023-03-21T03:35:46.443Z,10.15
2023-03-21T03:40:58.368Z,10.01
2023-03-21T03:46:23.091Z,10.14
2023-03-21T03:51:43.882Z,10.12
2023-03-21T03:56:46.891Z,10.08
2023-03-21T04:01:49.114Z,10.14
2023-03-21T04:06:51.714Z,10.08
2023-03-21T04:11:53.229Z,10.01
2023-03-21T04:16:54.597Z,9.99
2023-03-21T04:21:56.191Z,10.10
2023-03-21T04:26:57.604Z,10.16
2023-03-21T04:31:59.664Z,10.07
2023-03-21T04:37:01.019Z,10.08
2023-03-21T04:42:02.372Z,10.07
2023-03-21T04:47:03.811Z,10.07
2023-03-21T04:52:05.961Z,10.09
2023-03-21T04:57:08.019Z,10.16
2023-03-21T05:02:09.503Z,10.22
2023-03-21T05:07:11.094Z,10.26
2023-03-21T05:12:12.503Z,10.23
2023-03-21T05:17:15.355Z,10.11
2023-03-21T05:22:19.105Z,10.13
2023-03-21T05:27:36.975Z,10.12
2023-03-21T05:32:38.565Z,10.10
2023-03-21T05:37:40.334Z,10.10
2023-03-21T05:42:41.753Z,10.05
2023-03-21T05:47:43.278Z,10.14
2023-03-21T05:52:44.654Z,10.16
2023-03-21T05:57:46.184Z,10.26
2023-03-21T06:02:48.097Z,10.24
2023-03-21T06:07:50.317Z,10.32
2023-03-21T06:12:51.691Z,10.47
2023-03-21T06:17:53.220Z,10.40
2023-03-21T06:22:54.684Z,10.34
2023-03-21T06:27:56.336Z,10.25
2023-03-21T06:32:57.711Z,10.24
2023-03-21T06:37:59.798Z,10.26
2023-03-21T06:43:01.500Z,10.49
2023-03-21T06:48:03.415Z,10.71
2023-03-21T06:53:06.542Z,10.78
2023-03-21T06:58:17.061Z,10.98
2023-03-21T07:03:19.474Z,11.08
2023-03-21T07:08:22.310Z,11.29
2023-03-21T07:13:24.150Z,11.45
2023-03-21T07:18:26.225Z,11.80
2023-03-21T07:23:28.308Z,12.04
2023-03-21T07:28:31.338Z,12.15
2023-03-21T07:33:33.745Z,12.22
2023-03-21T07:38:35.234Z,12.24
2023-03-21T07:43:39.167Z,12.23
2023-03-21T07:48:40.996Z,12.37
2023-03-21T07:53:44.074Z,12.45
2023-03-21T07:58:45.603Z,12.28
2023-03-21T08:03:48.039Z,12.44
2023-03-21T08:08:49.521Z,12.46
2023-03-21T08:13:51.450Z,12.58
2023-03-21T08:18:52.855Z,12.77
2023-03-21T08:23:54.543Z,12.93
2023-03-21T08:28:56.101Z,13.15
2023-03-21T08:33:57.718Z,13.47
2023-03-21T08:39:05.704Z,13.67
2023-03-21T08:44:07.123Z,13.97
2023-03-21T08:49:08.644Z,14.01
2023-03-21T08:54:18.671Z,13.91
2023-03-21T08:59:20.326Z,13.71
2023-03-21T09:04:21.754Z,13.72
2023-03-21T09:09:23.855Z,13.69
2023-03-21T09:14:28.742Z,13.79
2023-03-21T09:19:31.868Z,13.84
2023-03-21T09:24:33.406Z,13.84
2023-03-21T09:29:34.920Z,13.77
2023-03-21T09:34:41.115Z,13.73
2023-03-21T09:39:44.922Z,13.84
2023-03-21T09:45:10.322Z,13.83
2023-03-21T09:50:17.346Z,13.73
2023-03-21T09:55:31.580Z,13.61
2023-03-21T10:00:40.288Z,13.64
2023-03-21T10:05:47.037Z,13.81
2023-03-21T10:10:52.574Z,13.99
2023-03-21T10:15:58.599Z,14.04
2023-03-21T10:21:01.337Z,14.13
2023-03-21T10:26:06.517Z,14.30
2023-03-21T10:31:10.923Z,14.45
2023-03-21T10:36:27.894Z,14.34
2023-03-21T10:41:29.631Z,14.26
2023-03-21T10:46:33.459Z,14.11
2023-03-21T10:51:39.838Z,14.18
2023-03-21T10:56:55.432Z,14.17
2023-03-21T11:01:57.550Z,14.13
2023-03-21T11:07:07.621Z,14.18
2023-03-21T11:12:15.806Z,14.11
2023-03-21T11:17:17.427Z,14.04
2023-03-21T11:22:22.512Z,13.96
2023-03-21T11:27:29.350Z,14.00
2023-03-21T11:32:37.822Z,14.02
2023-03-21T11:37:46.648Z,13.88
2023-03-21T11:42:59.370Z,13.91
2023-03-21T11:48:06.462Z,13.92
2023-03-21T11:53:40.618Z,13.99
2023-03-21T11:58:54.676Z,13.79
2023-03-21T12:04:27.334Z,13.95
2023-03-21T12:09:41.146Z,13.82
2023-03-21T12:15:16.935Z,13.81
2023-03-21T12:20:54.334Z,13.76
2023-03-21T12:26:21.462Z,13.94
2023-03-21T12:31:26.288Z,14.11
2023-03-21T12:36:59.056Z,14.33
2023-03-21T12:42:22.349Z,14.14
2023-03-21T12:47:28.112Z,13.99
2023-03-21T12:52:36.926Z,13.77
2023-03-21T12:57:56.370Z,13.72
2023-03-21T13:03:04.104Z,13.65
2023-03-21T13:08:11.398Z,13.65
2023-03-21T13:13:55.088Z,13.42
2023-03-21T13:19:10.968Z,13.23
2023-03-21T13:24:28.481Z,13.19
2023-03-21T13:29:45.151Z,13.20
2023-03-21T13:34:55.023Z,13.22
2023-03-21T13:40:12.839Z,13.26
2023-03-21T13:45:27.460Z,13.15
2023-03-21T13:50:54.738Z,13.16
2023-03-21T13:56:06.804Z,13.07
2023-03-21T14:01:33.160Z,13.04
2023-03-21T14:07:17.963Z,13.02
2023-03-21T14:12:47.527Z,13.07
2023-03-21T14:18:06.507Z,13.06
2023-03-21T14:23:17.899Z,13.08
2023-03-21T14:28:29.821Z,13.02
2023-03-21T14:33:38.539Z,13.01
2023-03-21T14:38:40.317Z,12.97
2023-03-21T14:43:42.949Z,12.95
2023-03-21T14:48:44.431Z,12.84
2023-03-21T14:53:46.181Z,12.75
2023-03-21T14:58:48.196Z,12.66
2023-03-21T15:03:52.017Z,12.72
2023-03-21T15:08:59.770Z,12.79
2023-03-21T15:14:05.005Z,12.84
2023-03-21T15:19:07.847Z,12.88
2023-03-21T15:24:17.451Z,12.88
2023-03-21T15:29:19.231Z,12.83
2023-03-21T15:34:22.300Z,12.90
2023-03-21T15:39:24.614Z,12.91
2023-03-21T15:44:27.761Z,12.92
2023-03-21T15:49:35.721Z,12.92
2023-03-21T15:54:50.851Z,12.85
2023-03-21T16:00:11.890Z,12.81
2023-03-21T16:05:26.022Z,12.86
2023-03-21T16:10:37.780Z,12.88
2023-03-21T16:15:40.014Z,12.84
2023-03-21T16:20:46.110Z,12.78
2023-03-21T16:25:47.842Z,12.76
2023-03-21T16:30:49.466Z,12.72
2023-03-21T16:35:52.424Z,12.68
2023-03-21T16:40:53.874Z,12.68
2023-03-21T16:45:55.261Z,12.64
2023-03-21T16:50:56.828Z,12.64
2023-03-21T16:56:02.556Z,12.61
2023-03-21T17:01:04.066Z,12.57
2023-03-21T17:06:06.095Z,12.55
2023-03-21T17:11:12.418Z,12.52
2023-03-21T17:16:15.708Z,12.48
2023-03-21T17:21:20.403Z,12.47
2023-03-21T17:26:27.480Z,12.43
2023-03-21T17:31:34.517Z,12.32
2023-03-21T17:36:40.551Z,12.28
2023-03-21T17:41:42.030Z,12.29
2023-03-21T17:46:44.120Z,12.16
2023-03-21T17:51:46.996Z,12.23
2023-03-21T17:56:48.515Z,12.19
2023-03-21T18:01:49.954Z,12.00
2023-03-21T18:06:51.758Z,12.14
2023-03-21T18:11:53.240Z,12.02
2023-03-21T18:16:57.429Z,12.01
2023-03-21T18:21:58.903Z,11.98
2023-03-21T18:27:00.941Z,11.97
2023-03-21T18:32:06.924Z,12.03
2023-03-21T18:37:11.299Z,12.06
2023-03-21T18:42:18.018Z,11.96
2023-03-21T18:47:22.904Z,11.96
2023-03-21T18:52:27.719Z,12.03
2023-03-21T18:57:36.972Z,12.10
2023-03-21T19:02:46.722Z,12.09
2023-03-21T19:07:50.847Z,12.14
2023-03-21T19:12:54.731Z,12.08
2023-03-21T19:23:18.718Z,12.08
2023-03-21T19:28:20.374Z,12.06
2023-03-21T19:33:22.759Z,11.98
2023-03-21T19:38:24.428Z,11.96
2023-03-21T19:43:32.880Z,11.93
2023-03-21T19:48:36.102Z,11.89
2023-03-21T19:53:39.061Z,11.88
2023-03-21T19:58:44.035Z,11.88
2023-03-21T20:03:46.014Z,11.90
2023-03-21T20:14:09.500Z,11.87
2023-03-21T20:19:13.388Z,11.87
2023-03-21T20:24:16.268Z,11.86
2023-03-21T20:34:40.314Z,11.95
2023-03-21T20:39:42.624Z,11.93
2023-03-21T20:45:00.841Z,11.94
2023-03-21T20:50:03.213Z,11.90
2023-03-21T20:55:08.933Z,11.87
2023-03-21T21:00:18.454Z,11.78
2023-03-21T21:05:35.896Z,11.69
2023-03-21T21:11:02.621Z,11.63
2023-03-21T21:16:00.222Z,11.59
2023-03-21T21:21:05.678Z,11.48
2023-03-21T21:26:09.079Z,11.46
2023-03-21T21:31:14.572Z,11.43
2023-03-21T21:36:16.900Z,11.36
2023-03-21T21:41:21.275Z,11.35
2023-03-21T21:46:23.530Z,11.26
2023-03-21T21:51:26.343Z,11.30
2023-03-21T21:56:32.685Z,11.31
2023-03-21T22:01:35.017Z,11.21
2023-03-21T22:06:37.537Z,11.14
2023-03-21T22:11:38.937Z,11.15
2023-03-21T22:16:40.459Z,11.16
2023-03-21T22:21:41.985Z,11.13
2023-03-21T22:26:44.896Z,11.11
2023-03-21T22:31:47.240Z,11.07
2023-03-21T22:36:50.301Z,11.05
2023-03-21T22:41:54.247Z,11.02
2023-03-21T22:46:56.001Z,11.00
2023-03-21T22:51:58.678Z,10.92
2023-03-21T22:57:00.235Z,10.87
2023-03-21T23:02:01.923Z,10.88
2023-03-21T23:07:04.196Z,10.81
2023-03-21T23:12:05.862Z,10.75
2023-03-21T23:17:07.408Z,10.67
2023-03-21T23:22:09.052Z,10.69
2023-03-21T23:27:10.612Z,10.68
2023-03-21T23:32:12.057Z,10.75
2023-03-21T23:37:13.448Z,10.75
2023-03-21T23:42:14.826Z,10.79
2023-03-21T23:47:16.770Z,10.77
2023-03-21T23:52:18.967Z,10.73
2023-03-21T23:57:20.604Z,10.75
